Terminal Aerodrome Forecast
Issued by NWS

Home | Current Version | Previous Version | Text Only | Print | Product List | Glossary On
Versions: 1 2 3 4 5 6 7 8 9 10 11 12 13 14
000
FTUS43 KTOP 251557 AAA
TAFMHK
TAF AMD
KMHK 251557Z 2516/2612 21009KT P6SM SCT070
     FM251715 30008KT P6SM VCTS BKN060CB
     FM252200 02007KT P6SM SHRA VCTS OVC040CB
     FM260400 35006KT P6SM SHRA OVC025=

USA.gov is the U.S. government's official web portal to all federal, state and local government web resources and services.